createdAt,value
2018-08-18T00:00:24.471Z,3.20
2018-08-18T00:02:53.919Z,3.20
2018-08-18T00:05:23.207Z,2.97
2018-08-18T00:07:52.550Z,4.13
2018-08-18T00:10:23.589Z,2.73
2018-08-18T00:12:53.003Z,3.07
2018-08-18T00:15:22.414Z,3.40
2018-08-18T00:17:51.769Z,2.90
2018-08-18T00:20:23.418Z,3.43
2018-08-18T00:22:52.776Z,3.57
2018-08-18T00:25:22.118Z,4.20
2018-08-18T00:27:51.378Z,4.00
2018-08-18T00:30:25.583Z,4.37
2018-08-18T00:32:55.918Z,5.30
2018-08-18T00:35:25.306Z,4.40
2018-08-18T00:37:54.599Z,4.33
2018-08-18T00:40:23.942Z,3.97
2018-08-18T00:42:53.439Z,4.57
2018-08-18T00:45:22.687Z,4.40
2018-08-18T00:47:52.289Z,4.43
2018-08-18T00:50:34.783Z,4.90
2018-08-18T00:53:05.018Z,4.53
2018-08-18T00:55:34.600Z,4.40
2018-08-18T00:58:04.368Z,4.50
2018-08-18T01:00:33.931Z,4.60
2018-08-18T01:03:03.237Z,4.83
2018-08-18T01:05:32.539Z,5.07
2018-08-18T01:08:01.785Z,4.40
2018-08-18T01:10:31.063Z,4.37
2018-08-18T01:13:00.393Z,4.33
2018-08-18T01:15:29.700Z,4.43
2018-08-18T01:17:59.023Z,4.80
2018-08-18T01:20:28.297Z,5.20
2018-08-18T01:23:00.073Z,4.60
2018-08-18T01:25:29.635Z,4.60
2018-08-18T01:28:00.106Z,4.67
2018-08-18T01:30:29.511Z,4.50
2018-08-18T01:32:58.779Z,5.60
2018-08-18T01:35:27.981Z,5.63
2018-08-18T01:37:57.215Z,4.53
2018-08-18T01:40:26.485Z,8.50
2018-08-18T01:42:55.752Z,5.80
2018-08-18T01:45:25.127Z,5.77
2018-08-18T01:47:54.375Z,5.50
2018-08-18T01:50:23.647Z,6.30
2018-08-18T01:52:52.924Z,5.70
2018-08-18T01:55:22.280Z,6.00
2018-08-18T01:57:51.535Z,5.90
2018-08-18T02:00:25.021Z,5.93
2018-08-18T02:02:54.379Z,5.63
2018-08-18T02:05:23.772Z,6.33
2018-08-18T02:07:52.988Z,5.93
2018-08-18T02:10:22.183Z,6.20
2018-08-18T02:13:04.723Z,6.17
2018-08-18T02:15:34.058Z,6.30
2018-08-18T02:18:03.420Z,6.20
2018-08-18T02:20:33.560Z,6.63
2018-08-18T02:23:02.871Z,8.00
2018-08-18T02:25:32.288Z,6.40
2018-08-18T02:28:01.563Z,6.33
2018-08-18T02:30:30.940Z,7.20
2018-08-18T02:33:00.244Z,6.57
2018-08-18T02:35:29.475Z,6.10
2018-08-18T02:37:58.731Z,5.90
2018-08-18T02:40:28.155Z,5.83
2018-08-18T02:42:57.421Z,6.03
2018-08-18T02:45:26.679Z,5.93
2018-08-18T02:48:10.587Z,5.67
2018-08-18T02:50:43.840Z,6.17
2018-08-18T02:53:24.567Z,6.03
2018-08-18T02:55:54.790Z,6.33
2018-08-18T02:58:24.120Z,5.27
2018-08-18T03:00:53.371Z,5.80
2018-08-18T03:03:22.760Z,5.80
2018-08-18T03:05:52.572Z,6.23
2018-08-18T03:08:21.850Z,6.37
2018-08-18T03:10:51.081Z,6.20
2018-08-18T03:13:20.439Z,5.40
2018-08-18T03:15:57.160Z,5.87
2018-08-18T03:18:43.368Z,6.07
2018-08-18T03:21:12.703Z,6.90
2018-08-18T03:23:52.825Z,7.03
2018-08-18T03:26:30.084Z,6.60
2018-08-18T03:28:59.341Z,5.73
2018-08-18T03:31:28.624Z,7.47
2018-08-18T03:33:57.891Z,6.37
2018-08-18T03:36:31.599Z,6.13
2018-08-18T03:39:00.926Z,6.27
2018-08-18T03:41:30.681Z,6.83
2018-08-18T03:44:00.393Z,6.57
2018-08-18T03:46:29.703Z,6.40
2018-08-18T03:48:59.052Z,7.00
2018-08-18T03:51:33.315Z,6.73
2018-08-18T03:54:02.843Z,6.27
2018-08-18T03:56:32.207Z,6.40
2018-08-18T03:59:01.534Z,7.63
2018-08-18T04:01:51.332Z,6.30
2018-08-18T04:04:21.711Z,6.40
2018-08-18T04:06:52.273Z,6.53
2018-08-18T04:09:23.740Z,7.03
2018-08-18T04:11:53.387Z,6.40
2018-08-18T04:14:28.255Z,6.60
2018-08-18T04:16:57.664Z,6.60
2018-08-18T04:19:26.936Z,6.47
2018-08-18T04:21:56.658Z,6.23
2018-08-18T04:24:32.975Z,6.43
2018-08-18T04:27:02.891Z,7.60
2018-08-18T04:29:32.171Z,6.90
2018-08-18T04:32:02.118Z,6.60
2018-08-18T04:34:31.403Z,6.90
2018-08-18T04:37:02.035Z,6.27
2018-08-18T04:39:31.359Z,5.80
2018-08-18T04:42:00.655Z,7.67
2018-08-18T04:44:29.963Z,6.83
2018-08-18T04:46:59.199Z,6.47
2018-08-18T04:49:28.446Z,6.73
2018-08-18T04:51:57.658Z,7.30
2018-08-18T04:54:26.890Z,7.03
2018-08-18T04:56:56.266Z,6.97
2018-08-18T04:59:25.482Z,6.63
2018-08-18T05:01:54.671Z,9.67
2018-08-18T05:04:24.013Z,6.90
2018-08-18T05:06:53.221Z,6.90
2018-08-18T05:09:25.467Z,7.17
2018-08-18T05:11:54.776Z,7.03
2018-08-18T05:14:24.003Z,8.87
2018-08-18T05:16:53.207Z,8.20
2018-08-18T05:19:22.469Z,6.83
2018-08-18T05:21:51.743Z,8.00
2018-08-18T05:24:26.071Z,8.37
2018-08-18T05:26:56.255Z,7.20
2018-08-18T05:29:25.532Z,8.10
2018-08-18T05:31:54.844Z,8.37
2018-08-18T05:34:24.047Z,8.53
2018-08-18T05:36:53.377Z,7.57
2018-08-18T05:39:22.601Z,8.20
2018-08-18T05:41:51.880Z,7.83
2018-08-18T05:44:21.132Z,8.47
2018-08-18T05:46:50.427Z,8.50
2018-08-18T05:49:19.642Z,8.93
2018-08-18T05:51:50.545Z,7.63
2018-08-18T05:54:24.695Z,8.13
2018-08-18T05:56:53.912Z,8.20
2018-08-18T05:59:23.351Z,9.03
2018-08-18T06:01:52.740Z,7.97
2018-08-18T06:04:22.819Z,8.40
2018-08-18T06:06:52.891Z,7.93
2018-08-18T06:09:23.174Z,7.43
2018-08-18T06:11:52.531Z,8.13
2018-08-18T06:14:21.870Z,7.80
2018-08-18T06:16:51.190Z,8.37
2018-08-18T06:19:20.488Z,8.30
2018-08-18T06:21:49.723Z,9.13
2018-08-18T06:24:18.973Z,8.33
2018-08-18T06:26:48.276Z,8.77
2018-08-18T06:29:17.520Z,9.10
2018-08-18T06:31:59.199Z,9.07
2018-08-18T06:34:30.740Z,9.37
2018-08-18T06:37:00.372Z,8.93
2018-08-18T06:39:40.391Z,8.43
2018-08-18T06:42:19.486Z,9.00
2018-08-18T06:44:48.759Z,9.13
2018-08-18T06:47:18.064Z,9.50
2018-08-18T06:49:47.302Z,9.40
2018-08-18T06:52:19.743Z,9.37
2018-08-18T06:54:50.794Z,9.87
2018-08-18T06:57:31.231Z,9.20
2018-08-18T07:00:08.960Z,9.70
2018-08-18T07:02:38.395Z,9.00
2018-08-18T07:05:09.998Z,8.90
2018-08-18T07:07:39.512Z,9.23
2018-08-18T07:10:26.858Z,8.87
2018-08-18T07:12:57.627Z,8.50
2018-08-18T07:15:28.863Z,8.33
2018-08-18T07:17:58.311Z,8.60
2018-08-18T07:20:27.643Z,8.33
2018-08-18T07:22:57.004Z,8.03
2018-08-18T07:25:26.248Z,8.37
2018-08-18T07:28:00.770Z,8.57
2018-08-18T07:30:30.828Z,7.47
2018-08-18T07:33:00.563Z,8.93
2018-08-18T07:35:29.957Z,8.13
2018-08-18T07:37:59.311Z,8.47
2018-08-18T07:40:38.388Z,8.10
2018-08-18T07:43:08.671Z,8.73
2018-08-18T07:45:38.567Z,7.57
2018-08-18T07:48:08.461Z,6.90
2018-08-18T07:50:37.687Z,7.17
2018-08-18T07:53:07.669Z,7.20
2018-08-18T07:55:37.018Z,6.63
2018-08-18T07:58:11.864Z,6.47
2018-08-18T08:00:41.619Z,6.97
2018-08-18T08:03:12.067Z,7.10
2018-08-18T08:05:41.477Z,6.80
2018-08-18T08:08:11.270Z,6.63
2018-08-18T08:10:40.728Z,6.17
2018-08-18T08:13:14.450Z,6.90
2018-08-18T08:15:43.841Z,6.90
2018-08-18T08:18:14.663Z,6.23
2018-08-18T08:20:43.992Z,5.80
2018-08-18T08:23:13.328Z,7.03
2018-08-18T08:25:42.570Z,7.63
2018-08-18T08:28:11.922Z,6.10
2018-08-18T08:30:41.146Z,6.37
2018-08-18T08:33:10.635Z,7.13
2018-08-18T08:35:39.882Z,6.37
2018-08-18T08:38:09.175Z,5.40
2018-08-18T08:40:38.808Z,5.77
2018-08-18T08:43:08.496Z,5.13
2018-08-18T08:45:37.865Z,7.70
2018-08-18T08:48:07.248Z,5.20
2018-08-18T08:50:36.504Z,5.80
2018-08-18T08:53:05.757Z,5.90
2018-08-18T08:55:35.111Z,5.40
2018-08-18T08:58:04.474Z,6.50
2018-08-18T09:00:33.702Z,6.73
2018-08-18T09:03:02.968Z,4.87
2018-08-18T09:05:32.219Z,6.20
2018-08-18T09:08:01.491Z,5.20
2018-08-18T09:10:30.811Z,5.07
2018-08-18T09:13:00.085Z,5.00
2018-08-18T09:15:29.355Z,4.67
2018-08-18T09:17:58.648Z,5.00
2018-08-18T09:20:28.617Z,6.93
2018-08-18T09:23:01.010Z,4.87
2018-08-18T09:25:31.820Z,5.30
2018-08-18T09:28:03.205Z,7.17
2018-08-18T09:30:33.355Z,4.80
2018-08-18T09:33:05.806Z,4.83
2018-08-18T09:35:51.216Z,5.50
2018-08-18T09:38:20.624Z,6.47
2018-08-18T09:40:50.027Z,6.53
2018-08-18T09:43:26.136Z,5.00
2018-08-18T09:45:56.616Z,4.73
2018-08-18T09:48:26.693Z,4.97
2018-08-18T09:50:57.332Z,4.50
2018-08-18T09:53:26.722Z,5.47
2018-08-18T09:55:56.065Z,5.00
2018-08-18T09:58:25.418Z,4.57
2018-08-18T10:00:54.698Z,5.00
2018-08-18T10:03:23.980Z,4.53
2018-08-18T10:05:53.267Z,4.90
2018-08-18T10:08:22.580Z,4.93
2018-08-18T10:10:51.909Z,4.67
2018-08-18T10:13:21.172Z,4.10
2018-08-18T10:15:50.430Z,4.13
2018-08-18T10:18:19.815Z,6.07
2018-08-18T10:20:50.124Z,4.90
2018-08-18T10:23:19.691Z,3.87
2018-08-18T10:25:48.955Z,4.73
2018-08-18T10:28:19.367Z,4.60
2018-08-18T10:30:48.709Z,3.60
2018-08-18T10:33:17.991Z,3.80
2018-08-18T10:35:47.363Z,4.27
2018-08-18T10:38:16.668Z,4.03
2018-08-18T10:40:45.976Z,4.47
2018-08-18T10:43:15.283Z,4.10
2018-08-18T10:45:46.259Z,4.30
2018-08-18T10:48:15.529Z,3.97
2018-08-18T10:50:55.519Z,4.40
2018-08-18T10:53:24.795Z,3.97
2018-08-18T10:55:54.131Z,5.00
2018-08-18T10:59:36.149Z,4.33
2018-08-18T11:02:07.032Z,3.50
2018-08-18T11:04:37.315Z,4.47
2018-08-18T11:07:06.692Z,5.57
2018-08-18T11:09:35.891Z,3.47
2018-08-18T11:12:05.204Z,3.77
2018-08-18T11:14:34.482Z,3.60
2018-08-18T11:17:03.896Z,6.20
2018-08-18T11:19:33.124Z,4.57
2018-08-18T11:22:13.215Z,5.05
2018-08-18T11:24:42.584Z,3.20
2018-08-18T11:27:11.912Z,3.20
2018-08-18T11:29:41.151Z,3.17
2018-08-18T11:32:10.460Z,3.67
2018-08-18T11:34:39.723Z,4.08
2018-08-18T11:37:09.012Z,3.08
2018-08-18T11:39:38.256Z,3.47
2018-08-18T11:42:07.517Z,4.05
2018-08-18T11:44:36.764Z,2.90
2018-08-18T11:47:06.042Z,2.90
2018-08-18T11:49:35.259Z,4.20
2018-08-18T11:52:04.551Z,3.22
2018-08-18T11:54:33.815Z,3.42
2018-08-18T11:57:03.022Z,6.95
2018-08-18T11:59:32.291Z,3.20
2018-08-18T12:02:01.680Z,3.10
2018-08-18T12:04:30.920Z,3.15
2018-08-18T12:07:00.238Z,5.33
2018-08-18T12:09:29.567Z,4.83
2018-08-18T12:11:58.876Z,2.98
2018-08-18T12:14:28.230Z,2.77
2018-08-18T12:16:57.583Z,3.58
2018-08-18T12:19:26.931Z,4.50
2018-08-18T12:21:56.278Z,2.98
2018-08-18T12:24:25.532Z,3.10
2018-08-18T12:27:06.389Z,3.27
2018-08-18T12:29:35.519Z,4.67
2018-08-18T12:32:05.988Z,4.65
2018-08-18T12:34:35.728Z,3.35
2018-08-18T12:37:05.169Z,3.25
2018-08-18T12:39:34.464Z,3.67
2018-08-18T12:42:03.768Z,5.50
2018-08-18T12:44:34.408Z,3.52
2018-08-18T12:47:04.136Z,3.72
2018-08-18T12:49:33.428Z,3.72
2018-08-18T12:52:02.731Z,3.90
2018-08-18T12:54:32.040Z,3.45
2018-08-18T12:57:01.316Z,8.50
2018-08-18T12:59:30.507Z,4.67
2018-08-18T13:01:59.814Z,3.70
2018-08-18T13:04:29.170Z,4.12
2018-08-18T13:06:58.351Z,4.00
2018-08-18T13:09:28.168Z,3.98
2018-08-18T13:11:58.732Z,3.50
2018-08-18T13:14:29.918Z,5.33
2018-08-18T13:16:59.191Z,4.53
2018-08-18T13:19:30.815Z,5.50
2018-08-18T13:22:00.119Z,4.00
2018-08-18T13:24:31.274Z,3.90
2018-08-18T13:27:01.380Z,4.00
2018-08-18T13:29:30.820Z,4.00
2018-08-18T13:32:00.060Z,5.58
2018-08-18T13:34:29.312Z,3.80
2018-08-18T13:36:58.471Z,3.92
2018-08-18T13:39:27.763Z,4.35
2018-08-18T13:41:57.011Z,4.80
2018-08-18T13:44:31.433Z,4.33
2018-08-18T13:47:00.691Z,5.75
2018-08-18T13:49:29.924Z,4.35
2018-08-18T13:51:59.155Z,4.00
2018-08-18T13:54:28.488Z,5.10
2018-08-18T13:56:57.764Z,3.85
2018-08-18T13:59:47.033Z,4.20
2018-08-18T14:02:16.295Z,4.67
2018-08-18T14:04:45.579Z,4.50
2018-08-18T14:07:14.907Z,4.17
2018-08-18T14:09:49.841Z,4.20
2018-08-18T14:12:19.419Z,4.22
2018-08-18T14:14:49.436Z,4.00
2018-08-18T14:17:20.992Z,4.17
2018-08-18T14:19:51.112Z,4.05
2018-08-18T14:22:22.675Z,6.90
2018-08-18T14:24:51.986Z,6.00
2018-08-18T14:27:22.912Z,5.92
2018-08-18T14:29:52.239Z,4.25
2018-08-18T14:32:25.583Z,4.62
2018-08-18T14:35:01.848Z,4.28
2018-08-18T14:37:31.116Z,4.70
2018-08-18T14:40:00.410Z,4.08
2018-08-18T14:42:29.727Z,5.87
2018-08-18T14:45:00.233Z,5.15
2018-08-18T14:47:29.471Z,10.25
2018-08-18T14:50:13.311Z,6.70
2018-08-18T14:52:43.814Z,5.10
2018-08-18T14:55:13.167Z,3.83
2018-08-18T14:58:02.494Z,4.10
2018-08-18T15:00:32.348Z,4.00
2018-08-18T15:03:01.672Z,3.75
2018-08-18T15:05:30.968Z,4.65
2018-08-18T15:08:00.459Z,4.17
2018-08-18T15:10:42.043Z,4.20
2018-08-18T15:13:11.955Z,4.05
2018-08-18T15:15:41.385Z,4.15
2018-08-18T15:18:13.428Z,4.28
2018-08-18T15:20:43.154Z,32.50
2018-08-18T15:23:13.428Z,16.67
2018-08-18T15:25:43.350Z,5.55
2018-08-18T15:28:16.612Z,4.00
2018-08-18T15:30:51.870Z,5.03
2018-08-18T15:33:23.447Z,5.05
2018-08-18T15:35:52.763Z,4.90
2018-08-18T15:38:57.054Z,4.55
2018-08-18T15:41:26.407Z,4.37
2018-08-18T15:43:55.819Z,4.35
2018-08-18T15:46:25.058Z,3.80
2018-08-18T15:48:54.312Z,4.08
2018-08-18T15:51:23.501Z,4.20
2018-08-18T15:53:58.601Z,4.50
2018-08-18T15:56:28.844Z,4.62
2018-08-18T15:58:58.850Z,4.37
2018-08-18T16:01:29.286Z,3.77
2018-08-18T16:04:00.647Z,4.45
2018-08-18T16:06:29.939Z,4.03
2018-08-18T16:08:59.258Z,3.80
2018-08-18T16:11:28.534Z,3.67
2018-08-18T16:13:58.013Z,4.20
2018-08-18T16:16:27.059Z,4.75
2018-08-18T16:19:01.143Z,4.42
2018-08-18T16:21:32.275Z,4.50
2018-08-18T16:24:01.985Z,3.90
2018-08-18T16:26:31.325Z,3.83
2018-08-18T16:29:00.660Z,4.85
2018-08-18T16:31:29.981Z,3.72
2018-08-18T16:33:59.300Z,5.15
2018-08-18T16:36:32.591Z,3.80
2018-08-18T16:39:02.135Z,4.78
2018-08-18T16:41:31.377Z,3.92
2018-08-18T16:44:00.644Z,5.03
2018-08-18T16:46:31.497Z,7.70
2018-08-18T16:49:00.763Z,5.28
2018-08-18T16:51:29.910Z,4.05
2018-08-18T16:54:14.287Z,4.15
2018-08-18T16:56:43.424Z,4.40
2018-08-18T16:59:12.697Z,5.20
2018-08-18T17:01:41.893Z,5.03
2018-08-18T17:04:17.254Z,4.85
2018-08-18T17:06:46.483Z,4.28
2018-08-18T17:09:25.388Z,7.08
2018-08-18T17:12:05.356Z,5.90
2018-08-18T17:14:34.682Z,4.45
2018-08-18T17:17:03.928Z,4.20
2018-08-18T17:19:33.199Z,4.47
2018-08-18T17:22:02.530Z,5.00
2018-08-18T17:24:31.734Z,4.25
2018-08-18T17:27:01.015Z,5.17
2018-08-18T17:29:33.294Z,4.60
2018-08-18T17:32:02.480Z,4.77
2018-08-18T17:34:31.655Z,5.80
2018-08-18T17:37:00.868Z,4.40
2018-08-18T17:39:30.092Z,4.73
2018-08-18T17:41:59.784Z,5.03
2018-08-18T17:44:29.771Z,4.53
2018-08-18T17:46:59.108Z,4.30
2018-08-18T17:49:28.479Z,5.50
2018-08-18T17:52:06.473Z,4.22
2018-08-18T17:54:37.136Z,4.87
2018-08-18T17:57:07.207Z,4.57
2018-08-18T17:59:37.282Z,4.93
2018-08-18T18:02:15.291Z,5.65
2018-08-18T18:04:44.688Z,4.93
2018-08-18T18:07:14.121Z,5.03
2018-08-18T18:09:43.448Z,5.53
2018-08-18T18:12:29.575Z,5.30
2018-08-18T18:14:58.827Z,5.17
2018-08-18T18:17:28.592Z,5.43
2018-08-18T18:20:00.099Z,5.43
2018-08-18T18:22:40.063Z,5.27
2018-08-18T18:25:09.472Z,5.30
2018-08-18T18:27:38.809Z,7.10
2018-08-18T18:30:08.161Z,5.67
2018-08-18T18:32:37.463Z,5.90
2018-08-18T18:35:06.732Z,7.33
2018-08-18T18:37:36.035Z,6.10
2018-08-18T18:40:08.414Z,5.40
2018-08-18T18:42:37.640Z,5.70
2018-08-18T18:45:08.963Z,5.47
2018-08-18T18:47:38.488Z,5.87
2018-08-18T18:50:08.184Z,5.67
2018-08-18T18:52:37.480Z,5.83
2018-08-18T18:55:07.327Z,5.87
2018-08-18T18:57:36.535Z,5.87
2018-08-18T19:00:09.131Z,6.17
2018-08-18T19:02:42.307Z,6.40
2018-08-18T19:05:22.103Z,5.23
2018-08-18T19:07:59.592Z,5.93
2018-08-18T19:10:28.847Z,6.20
2018-08-18T19:12:58.614Z,5.10
2018-08-18T19:15:28.695Z,5.77
2018-08-18T19:17:57.932Z,5.37
2018-08-18T19:20:29.041Z,6.40
2018-08-18T19:23:05.327Z,7.20
2018-08-18T19:25:35.540Z,8.30
2018-08-18T19:28:04.900Z,7.13
2018-08-18T19:30:34.808Z,7.47
2018-08-18T19:33:04.176Z,7.33
2018-08-18T19:35:38.539Z,6.57
2018-08-18T19:38:07.939Z,6.57
2018-08-18T19:40:38.376Z,7.53
2018-08-18T19:43:10.135Z,7.53
2018-08-18T19:45:39.417Z,6.80
2018-08-18T19:48:09.232Z,6.97
2018-08-18T19:50:43.015Z,6.80
2018-08-18T19:53:12.310Z,7.10
2018-08-18T19:55:41.543Z,8.70
2018-08-18T19:58:10.766Z,9.57
2018-08-18T20:00:40.000Z,11.40
2018-08-18T20:03:10.693Z,8.13
2018-08-18T20:05:39.992Z,10.83
2018-08-18T20:08:09.386Z,9.63
2018-08-18T20:10:45.799Z,9.23
2018-08-18T20:13:15.952Z,8.30
2018-08-18T20:15:46.779Z,10.60
2018-08-18T20:18:16.191Z,10.60
2018-08-18T20:20:45.434Z,8.83
2018-08-18T20:23:16.418Z,8.83
2018-08-18T20:25:46.053Z,8.97
2018-08-18T20:28:15.556Z,8.67
2018-08-18T20:30:44.865Z,8.30
2018-08-18T20:33:14.214Z,8.47
2018-08-18T20:35:43.519Z,8.30
2018-08-18T20:38:12.799Z,7.23
2018-08-18T20:40:42.126Z,7.50
2018-08-18T20:43:11.375Z,6.47
2018-08-18T20:45:45.757Z,6.83
2018-08-18T20:48:16.324Z,6.80
2018-08-18T20:50:45.669Z,7.10
2018-08-18T20:53:16.038Z,8.10
2018-08-18T20:55:48.338Z,9.50
2018-08-18T20:58:17.600Z,7.53
2018-08-18T21:00:46.881Z,6.83
2018-08-18T21:03:16.081Z,7.47
2018-08-18T21:05:45.363Z,10.67
2018-08-18T21:08:18.610Z,8.63
2018-08-18T21:10:48.600Z,6.83
2018-08-18T21:13:17.852Z,9.07
2018-08-18T21:15:47.094Z,11.87
2018-08-18T21:18:19.147Z,11.47
2018-08-18T21:20:49.091Z,7.23
2018-08-18T21:23:19.484Z,7.87
2018-08-18T21:25:51.611Z,7.93
2018-08-18T21:28:22.924Z,8.17
2018-08-18T21:30:52.175Z,8.43
2018-08-18T21:33:24.486Z,7.67
2018-08-18T21:35:54.166Z,8.77
2018-08-18T21:38:23.402Z,9.23
2018-08-18T21:40:52.753Z,8.10
2018-08-18T21:43:31.166Z,7.63
2018-08-18T21:46:00.480Z,8.30
2018-08-18T21:48:41.099Z,8.23
2018-08-18T21:51:10.472Z,10.27
2018-08-18T21:53:39.832Z,8.17
2018-08-18T21:56:09.098Z,8.27
2018-08-18T21:58:38.395Z,8.80
2018-08-18T22:01:12.911Z,8.20
2018-08-18T22:03:42.232Z,7.90
2018-08-18T22:06:11.643Z,7.93
2018-08-18T22:08:41.017Z,7.50
2018-08-18T22:11:19.523Z,8.27
2018-08-18T22:13:55.416Z,7.77
2018-08-18T22:16:24.731Z,7.60
2018-08-18T22:19:03.206Z,7.87
2018-08-18T22:21:33.041Z,7.60
2018-08-18T22:24:03.327Z,7.97
2018-08-18T22:26:32.666Z,7.33
2018-08-18T22:29:03.328Z,7.37
2018-08-18T22:31:33.395Z,7.63
2018-08-18T22:34:03.780Z,7.03
2018-08-18T22:36:34.464Z,6.83
2018-08-18T22:39:05.242Z,7.10
2018-08-18T22:41:34.539Z,6.63
2018-08-18T22:44:03.906Z,7.47
2018-08-18T22:46:33.201Z,7.27
2018-08-18T22:49:02.443Z,6.37
2018-08-18T22:51:31.743Z,6.67
2018-08-18T22:54:01.007Z,7.57
2018-08-18T22:56:37.373Z,7.47
2018-08-18T22:59:08.258Z,6.20
2018-08-18T23:01:38.705Z,9.70
2018-08-18T23:04:34.346Z,8.13
2018-08-18T23:07:04.719Z,7.50
2018-08-18T23:09:33.923Z,6.13
2018-08-18T23:12:04.861Z,7.63
2018-08-18T23:14:36.638Z,5.90
2018-08-18T23:17:06.652Z,5.73
2018-08-18T23:19:35.902Z,6.67
2018-08-18T23:22:05.275Z,7.77
2018-08-18T23:24:37.380Z,5.77
2018-08-18T23:27:07.994Z,6.17
2018-08-18T23:29:37.303Z,6.07
2018-08-18T23:32:15.927Z,5.50
2018-08-18T23:34:45.329Z,5.83
2018-08-18T23:37:18.748Z,7.73
2018-08-18T23:39:50.928Z,5.93
2018-08-18T23:42:22.063Z,5.30
2018-08-18T23:44:51.263Z,5.97
2018-08-18T23:47:20.843Z,7.70
2018-08-18T23:49:50.466Z,9.37
2018-08-18T23:52:19.879Z,5.43
2018-08-18T23:54:49.112Z,6.60
2018-08-18T23:57:18.942Z,5.33
2018-08-18T23:59:48.711Z,5.73
